Time;durP1;ratioP1;P1;durP2;ratioP2;P2;SDS_P1;SDS_P2;PMS_P1;PMS_P2;Temp;Humidity;BMP_temperature;BMP_pressure;BME280_temperature;BME280_humidity;BME280_pressure;Samples;Min_cycle;Max_cycle;Signal;HPM_P1;HPM_P2
2023/04/14 00:00:22;;;;;;;;;4.75;0.75;;;;;22.04;35.34;100296.56;5090614;27;45588;-75
2023/04/14 00:02:48;;;;;;;;;1.00;1.00;;;;;22.02;35.58;100292.34;5073857;27;49907;-74
2023/04/14 00:05:13;;;;;;;;;1.50;1.00;;;;;22.05;35.88;100302.78;5079164;27;63811;-74
2023/04/14 00:07:38;;;;;;;;;0.25;0.25;;;;;22.02;35.91;100298.53;5063823;27;63843;-74
2023/04/14 00:10:04;;;;;;;;;2.25;2.00;;;;;22.00;35.73;100297.81;5096305;27;45469;-73
2023/04/14 00:12:30;;;;;;;;;0.25;0.00;;;;;21.93;35.60;100285.97;5063299;27;45476;-73
2023/04/14 00:14:55;;;;;;;;;1.25;0.25;;;;;21.91;35.66;100282.59;5075776;27;66284;-74
2023/04/14 00:17:20;;;;;;;;;1.75;1.00;;;;;21.96;35.79;100288.38;5085174;27;65871;-74
2023/04/14 00:19:46;;;;;;;;;1.50;1.50;;;;;21.94;35.61;100285.84;5062437;27;61828;-73
2023/04/14 00:22:11;;;;;;;;;1.00;1.00;;;;;21.91;35.58;100277.25;5058832;27;45485;-74
2023/04/14 00:24:41;;;;;;;;;1.75;0.00;;;;;21.96;35.82;100283.06;5061354;27;47259;-73
2023/04/14 00:27:07;;;;;;;;;2.50;1.25;;;;;21.95;35.66;100281.34;5074161;27;45250;-74
2023/04/14 00:29:34;;;;;;;;;1.00;0.00;;;;;21.96;35.66;100285.72;5075575;27;45616;-75
2023/04/14 00:32:00;;;;;;;;;1.00;1.00;;;;;21.93;36.01;100277.97;5072360;27;45483;-75
2023/04/14 00:34:25;;;;;;;;;1.25;1.25;;;;;21.95;35.41;100281.34;5079645;27;47623;-75
2023/04/14 00:36:50;;;;;;;;;3.00;1.25;;;;;21.91;36.06;100275.44;5067927;28;63956;-75
2023/04/14 00:39:16;;;;;;;;;4.00;1.00;;;;;21.95;35.53;100289.34;5074900;27;66872;-75
2023/04/14 00:41:42;;;;;;;;;1.00;1.00;;;;;21.88;35.61;100281.00;5076987;27;45450;-75
2023/04/14 00:44:08;;;;;;;;;1.00;1.00;;;;;21.89;35.52;100274.72;5073094;27;45439;-74
2023/04/14 00:46:33;;;;;;;;;1.25;1.25;;;;;21.91;35.69;100282.59;5050326;27;45463;-74
2023/04/14 00:48:59;;;;;;;;;0.75;0.75;;;;;21.91;35.89;100275.44;5054935;27;58602;-74
2023/04/14 00:51:26;;;;;;;;;0.00;0.00;;;;;21.85;35.96;100265.28;5089656;27;46177;-74
2023/04/14 00:53:52;;;;;;;;;0.50;0.25;;;;;21.89;35.61;100265.88;5095812;27;45634;-74
2023/04/14 00:56:18;;;;;;;;;3.00;1.00;;;;;21.90;35.54;100267.56;5058274;27;45475;-75
2023/04/14 00:58:43;;;;;;;;;1.00;1.00;;;;;21.81;35.41;100255.84;5055296;27;45502;-75
2023/04/14 01:01:09;;;;;;;;;0.75;0.75;;;;;21.87;35.45;100265.13;5077634;27;54551;-74
2023/04/14 01:03:35;;;;;;;;;1.75;1.00;;;;;21.83;35.29;100259.22;5080122;27;46344;-74
2023/04/14 01:06:01;;;;;;;;;3.25;1.00;;;;;21.85;36.00;100261.75;5066985;27;45589;-74
2023/04/14 01:08:26;;;;;;;;;2.50;1.00;;;;;21.88;35.85;100266.84;5090784;27;62509;-73
2023/04/14 01:11:03;;;;;;;;;1.25;1.00;;;;;21.85;35.67;100259.97;5080062;27;57189;-73
2023/04/14 01:13:32;;;;;;;;;1.00;1.00;;;;;21.87;35.53;100268.66;5063320;27;48358;-73
2023/04/14 01:16:06;;;;;;;;;1.25;0.00;;;;;21.84;35.51;100265.41;5087066;27;45523;-73
2023/04/14 01:18:53;;;;;;;;;0.50;0.50;;;;;21.79;35.53;100253.28;5057646;27;45329;-73
2023/04/14 01:21:22;;;;;;;;;1.00;1.00;;;;;21.85;35.96;100267.94;5060296;28;46041;-74
2023/04/14 01:24:17;;;;;;;;;2.00;0.50;;;;;21.78;35.57;100256.94;5075204;27;46425;-73
2023/04/14 01:26:44;;;;;;;;;1.00;1.00;;;;;21.84;35.79;100265.41;5070578;27;45931;-72
2023/04/14 01:29:36;;;;;;;;;2.75;0.00;;;;;21.83;35.88;100275.19;5093027;27;60229;-74
2023/04/14 01:32:09;;;;;;;;;2.50;1.00;;;;;21.83;35.46;100263.72;5064782;27;45527;-74
2023/04/14 01:34:54;;;;;;;;;3.50;1.00;;;;;21.80;35.74;100273.66;5073763;27;45524;-74
2023/04/14 01:37:33;;;;;;;;;0.00;0.00;;;;;21.80;35.54;100272.81;5093444;27;47079;-74
2023/04/14 01:40:04;;;;;;;;;1.00;1.00;;;;;21.77;35.85;100265.91;5063115;27;45478;-74
2023/04/14 01:42:33;;;;;;;;;0.75;0.75;;;;;21.77;35.71;100265.91;5062562;27;45680;-73
2023/04/14 01:45:04;;;;;;;;;1.50;0.00;;;;;21.78;35.50;100261.44;5094711;27;46242;-74
2023/04/14 01:47:30;;;;;;;;;0.50;0.25;;;;;21.75;35.48;100261.69;5051944;27;45406;-73
2023/04/14 01:49:56;;;;;;;;;0.00;0.00;;;;;21.70;36.01;100255.88;5073059;27;47325;-74
2023/04/14 01:52:22;;;;;;;;;1.00;0.00;;;;;21.77;35.77;100265.91;5063670;27;45755;-73
2023/04/14 01:54:50;;;;;;;;;1.00;1.00;;;;;21.73;35.71;100253.81;5076951;27;47277;-73
2023/04/14 01:57:19;;;;;;;;;0.75;0.00;;;;;21.73;35.83;100255.63;5071208;27;45256;-74
2023/04/14 01:59:45;;;;;;;;;2.75;1.00;;;;;21.67;35.45;100251.63;5076537;27;45469;-74
2023/04/14 02:02:12;;;;;;;;;1.00;1.00;;;;;21.73;35.77;100259.13;5082150;27;45577;-74
2023/04/14 02:04:38;;;;;;;;;1.00;0.00;;;;;21.71;35.49;100260.22;5062304;27;48209;-74
2023/04/14 02:07:04;;;;;;;;;0.25;0.25;;;;;21.68;35.44;100252.50;5066242;27;56698;-73
2023/04/14 02:09:31;;;;;;;;;3.50;1.00;;;;;21.72;35.97;100261.91;5059339;27;45329;-74
2023/04/14 02:11:57;;;;;;;;;0.00;0.00;;;;;21.66;35.38;100249.97;5075486;28;45655;-74
2023/04/14 02:14:23;;;;;;;;;0.00;0.00;;;;;21.72;35.72;100264.59;5095043;27;45971;-74
2023/04/14 02:16:49;;;;;;;;;0.75;0.00;;;;;21.73;35.38;100271.63;5073094;27;45313;-73
2023/04/14 02:19:18;;;;;;;;;1.50;0.00;;;;;21.68;35.87;100252.50;5070638;28;45500;-73
2023/04/14 02:21:44;;;;;;;;;0.00;0.00;;;;;21.71;35.92;100271.75;5077300;27;45547;-73
2023/04/14 02:24:09;;;;;;;;;0.50;0.00;;;;;21.70;35.60;100274.53;5061080;27;47161;-73
2023/04/14 02:26:39;;;;;;;;;1.25;0.00;;;;;21.66;35.58;100263.28;5060041;28;45377;-73
2023/04/14 02:29:13;;;;;;;;;2.00;1.00;;;;;21.70;35.88;100275.34;5071912;27;45518;-73
2023/04/14 02:31:46;;;;;;;;;0.50;0.00;;;;;21.65;35.84;100258.06;5068795;27;45578;-73
2023/04/14 02:34:13;;;;;;;;;0.00;0.00;;;;;21.69;35.44;100259.50;5059890;27;47936;-73
2023/04/14 02:36:45;;;;;;;;;1.00;0.50;;;;;21.68;35.68;100255.16;5051906;27;58238;-73
2023/04/14 02:39:14;;;;;;;;;0.00;0.00;;;;;21.63;35.86;100247.53;5077371;27;45486;-73
2023/04/14 02:41:41;;;;;;;;;1.50;0.50;;;;;21.64;35.39;100245.72;5082624;27;45347;-73
2023/04/14 02:44:16;;;;;;;;;2.75;0.75;;;;;21.65;35.43;100253.56;5073749;27;45553;-73
2023/04/14 02:46:47;;;;;;;;;1.00;1.00;;;;;21.66;35.92;100244.63;5072971;27;45953;-73
2023/04/14 02:49:13;;;;;;;;;1.00;1.00;;;;;21.62;35.40;100237.88;5091395;27;45446;-73
2023/04/14 02:51:40;;;;;;;;;1.50;0.00;;;;;21.65;35.48;100244.75;5061093;27;45791;-73
2023/04/14 02:54:05;;;;;;;;;0.00;0.00;;;;;21.64;35.93;100238.59;5063668;27;76442;-72
2023/04/14 02:56:31;;;;;;;;;0.50;0.50;;;;;21.63;35.81;100234.22;5060413;27;58785;-73
2023/04/14 02:58:57;;;;;;;;;3.00;1.00;;;;;21.62;35.25;100227.22;5074676;27;45537;-73
2023/04/14 03:01:24;;;;;;;;;1.00;1.00;;;;;21.61;35.63;100226.34;5071740;28;45408;-73
2023/04/14 03:03:51;;;;;;;;;0.25;0.25;;;;;21.59;35.26;100216.81;5060406;27;48345;-73
2023/04/14 03:06:16;;;;;;;;;0.00;0.00;;;;;21.60;35.86;100222.00;5060106;28;45557;-73
2023/04/14 03:08:42;;;;;;;;;1.00;0.25;;;;;21.59;35.84;100222.97;5059541;27;45814;-73
2023/04/14 03:11:11;;;;;;;;;0.50;0.50;;;;;21.61;35.26;100217.53;5090686;27;45490;-73
2023/04/14 03:13:36;;;;;;;;;1.00;1.00;;;;;21.55;35.70;100210.91;5054350;27;46242;-73
2023/04/14 03:16:03;;;;;;;;;2.00;0.25;;;;;21.58;35.87;100208.00;5060121;27;45506;-73
2023/04/14 03:18:30;;;;;;;;;0.00;0.00;;;;;21.60;35.37;100208.69;5060152;27;45447;-73
2023/04/14 03:20:56;;;;;;;;;0.00;0.00;;;;;21.54;35.42;100198.53;5058511;27;45479;-73
2023/04/14 03:23:24;;;;;;;;;2.00;1.00;;;;;21.52;35.37;100191.66;5072587;27;45494;-73
2023/04/14 03:25:50;;;;;;;;;0.00;0.00;;;;;21.57;35.41;100202.78;5053764;27;70636;-73
2023/04/14 03:28:18;;;;;;;;;0.00;0.00;;;;;21.53;36.15;100201.31;5051451;27;60574;-73
2023/04/14 03:30:46;;;;;;;;;2.00;1.00;;;;;21.57;35.67;100205.44;5092935;27;46125;-73
2023/04/14 03:33:18;;;;;;;;;2.00;0.00;;;;;21.56;35.79;100209.06;5060915;27;48278;-73
2023/04/14 03:35:44;;;;;;;;;0.00;0.00;;;;;21.47;35.75;100194.69;5068718;27;45622;-73
2023/04/14 03:38:10;;;;;;;;;1.00;1.00;;;;;21.55;35.48;100210.91;5079220;27;45393;-72
2023/04/14 03:40:39;;;;;;;;;0.00;0.00;;;;;21.57;35.80;100208.94;5091175;27;45433;-73
2023/04/14 03:43:08;;;;;;;;;1.00;1.00;;;;;21.56;35.80;100201.91;5060916;27;47509;-73
2023/04/14 03:45:35;;;;;;;;;0.00;0.00;;;;;21.47;35.59;100192.03;5072201;27;45390;-73
2023/04/14 03:48:02;;;;;;;;;1.00;1.00;;;;;21.53;35.61;100203.97;5074265;27;46073;-73
2023/04/14 03:50:30;;;;;;;;;1.00;1.00;;;;;21.54;35.55;100197.69;5074544;27;46100;-73
2023/04/14 03:52:57;;;;;;;;;1.00;1.00;;;;;21.43;35.53;100188.72;5065343;27;45622;-73
2023/04/14 03:55:26;;;;;;;;;1.00;1.00;;;;;21.53;35.41;100210.19;5066667;27;45541;-73
2023/04/14 03:57:53;;;;;;;;;0.00;0.00;;;;;21.50;35.43;100197.09;5077458;27;45287;-73
2023/04/14 04:00:19;;;;;;;;;1.00;1.00;;;;;21.51;35.70;100197.94;5078998;27;45433;-73
2023/04/14 04:02:45;;;;;;;;;0.75;0.75;;;;;21.54;35.64;100197.69;5058256;27;76768;-73
2023/04/14 04:05:11;;;;;;;;;2.00;0.00;;;;;21.53;35.67;100196.00;5059572;27;74993;-73
2023/04/14 04:07:37;;;;;;;;;1.00;1.00;;;;;21.48;35.63;100187.53;5098021;27;66668;-72
2023/04/14 04:10:04;;;;;;;;;1.50;0.00;;;;;21.50;35.17;100194.44;5062898;27;66491;-73
2023/04/14 04:12:31;;;;;;;;;1.25;0.25;;;;;21.49;35.43;100192.75;5071908;27;45343;-72
2023/04/14 04:14:56;;;;;;;;;0.00;0.00;;;;;21.49;35.86;100194.56;5055577;27;45232;-74
2023/04/14 04:17:23;;;;;;;;;1.75;1.00;;;;;21.47;35.74;100192.03;5074196;27;45658;-72
2023/04/14 04:19:49;;;;;;;;;0.00;0.00;;;;;21.50;35.84;100198.94;5077540;27;45569;-72
2023/04/14 04:22:17;;;;;;;;;0.00;0.00;;;;;21.47;35.88;100189.38;5075324;27;46172;-72
2023/04/14 04:24:43;;;;;;;;;1.00;0.50;;;;;21.41;35.82;100182.69;5060311;27;46071;-73
2023/04/14 04:27:09;;;;;;;;;1.00;0.25;;;;;21.48;35.35;100185.75;5061276;28;45579;-71
2023/04/14 04:29:36;;;;;;;;;0.00;0.00;;;;;21.44;35.62;100173.59;5059140;27;49465;-71
2023/04/14 04:32:01;;;;;;;;;0.00;0.00;;;;;21.47;35.46;100177.88;5082296;27;45403;-71
2023/04/14 04:34:30;;;;;;;;;1.00;1.00;;;;;21.46;35.61;100174.38;5073137;27;45710;-71
2023/04/14 04:36:57;;;;;;;;;2.25;0.25;;;;;21.49;35.43;100183.91;5073706;28;45593;-73
2023/04/14 04:39:23;;;;;;;;;0.00;0.00;;;;;21.46;35.78;100179.69;5050321;27;45714;-73
2023/04/14 04:41:50;;;;;;;;;1.00;0.00;;;;;21.45;35.39;100175.31;5059088;27;56603;-73
2023/04/14 04:44:16;;;;;;;;;0.00;0.00;;;;;21.45;35.21;100174.47;5096772;27;45433;-73
2023/04/14 04:46:52;;;;;;;;;0.25;0.25;;;;;21.45;35.53;100166.47;5065091;27;45502;-73
2023/04/14 04:49:18;;;;;;;;;1.50;0.50;;;;;21.44;35.50;100165.63;5075976;27;45561;-73
2023/04/14 04:51:43;;;;;;;;;0.00;0.00;;;;;21.42;35.77;100163.09;5076578;27;46782;-73
2023/04/14 04:54:08;;;;;;;;;0.00;0.00;;;;;21.46;35.31;100169.06;5059755;27;45432;-73
2023/04/14 04:56:34;;;;;;;;;0.50;0.50;;;;;21.42;35.33;100157.78;5073460;27;61343;-72
2023/04/14 04:58:59;;;;;;;;;2.25;1.00;;;;;21.42;35.61;100162.22;5074440;27;45427;-72
2023/04/14 05:01:25;;;;;;;;;1.00;1.00;;;;;21.42;35.69;100162.22;5091656;27;45550;-72
2023/04/14 05:03:50;;;;;;;;;0.50;0.50;;;;;21.43;35.61;100158.63;5075633;27;45449;-74
2023/04/14 05:06:16;;;;;;;;;1.00;0.00;;;;;21.41;35.46;100152.56;5064034;27;59494;-71
2023/04/14 05:08:41;;;;;;;;;0.75;0.25;;;;;21.43;35.34;100163.94;5098531;27;67942;-72
2023/04/14 05:11:07;;;;;;;;;1.00;0.00;;;;;21.39;35.27;100152.69;5064950;27;47233;-71
2023/04/14 05:13:32;;;;;;;;;0.00;0.00;;;;;21.41;35.56;100149.91;5062981;27;64693;-71
2023/04/14 05:16:04;;;;;;;;;1.00;1.00;;;;;21.38;35.56;100142.16;5064219;28;45293;-72
2023/04/14 05:18:30;;;;;;;;;0.75;0.75;;;;;21.40;35.72;100143.72;5063042;27;45592;-72
2023/04/14 05:21:03;;;;;;;;;2.00;1.00;;;;;21.35;35.40;100140.59;5088804;27;45477;-72
2023/04/14 05:23:30;;;;;;;;;0.25;0.25;;;;;21.36;35.84;100136.97;5076345;27;45451;-73
2023/04/14 05:25:56;;;;;;;;;0.75;0.75;;;;;21.37;35.65;100137.81;5077981;28;45433;-72
2023/04/14 05:28:21;;;;;;;;;0.00;0.00;;;;;21.38;35.54;100136.84;5063794;27;45698;-73
2023/04/14 05:30:47;;;;;;;;;1.25;1.00;;;;;21.34;35.89;100130.09;5059180;27;48225;-72
2023/04/14 05:33:12;;;;;;;;;1.00;1.00;;;;;21.36;35.21;100136.97;5076960;27;46067;-72
2023/04/14 05:35:38;;;;;;;;;1.50;1.50;;;;;21.34;35.25;100130.09;5090172;27;45522;-71
2023/04/14 05:38:03;;;;;;;;;0.00;0.00;;;;;21.34;35.74;100128.28;5067096;27;69559;-74
2023/04/14 05:40:31;;;;;;;;;1.00;0.75;;;;;21.38;35.92;100134.19;5065976;27;77232;-72
2023/04/14 05:42:56;;;;;;;;;1.00;0.25;;;;;21.35;35.54;100139.75;5080023;27;45867;-78
2023/04/14 05:45:22;;;;;;;;;3.00;3.00;;;;;21.32;35.86;100135.53;5058205;27;45399;-77
2023/04/14 05:47:47;;;;;;;;;7.00;3.00;;;;;21.32;35.50;100138.19;5073748;27;45606;-76
2023/04/14 05:50:12;;;;;;;;;4.00;3.00;;;;;21.35;35.47;100139.75;5056873;27;47038;-74
2023/04/14 05:52:38;;;;;;;;;3.75;3.00;;;;;21.31;35.19;100131.19;5063300;27;46329;-75
2023/04/14 05:55:03;;;;;;;;;14.00;8.75;;;;;21.30;35.52;100132.16;5076558;27;62302;-73
2023/04/14 05:57:29;;;;;;;;;6.00;6.00;;;;;21.24;34.99;100125.50;5063385;27;45586;-74
2023/04/14 05:59:54;;;;;;;;;5.75;5.00;;;;;21.23;35.50;100120.34;5073167;27;45525;-73
2023/04/14 06:02:20;;;;;;;;;6.00;4.00;;;;;21.23;35.14;100123.81;5076253;27;62684;-74
2023/04/14 06:04:46;;;;;;;;;5.75;4.25;;;;;21.22;35.12;100124.78;5074147;27;66662;-75
2023/04/14 06:07:11;;;;;;;;;5.00;4.00;;;;;21.18;35.21;100118.03;5075200;27;45328;-78
2023/04/14 06:09:36;;;;;;;;;5.00;4.00;;;;;21.17;34.68;100118.16;5071807;28;45952;-74
2023/04/14 06:12:02;;;;;;;;;3.00;3.00;;;;;21.16;35.30;100117.31;5054401;28;66336;-78
2023/04/14 06:14:27;;;;;;;;;3.00;2.00;;;;;21.14;34.86;100113.94;5075001;28;45513;-75
2023/04/14 06:16:53;;;;;;;;;4.75;4.00;;;;;21.14;35.25;100115.72;5079538;27;45487;-76
2023/04/14 06:19:19;;;;;;;;;5.00;3.50;;;;;21.11;35.29;100108.84;5072445;27;67858;-75
2023/04/14 06:21:45;;;;;;;;;3.25;3.25;;;;;21.12;34.90;100113.19;5073256;27;45251;-76
2023/04/14 06:24:10;;;;;;;;;3.75;3.00;;;;;21.11;34.79;100106.19;5059948;27;45423;-76
2023/04/14 06:26:36;;;;;;;;;5.75;3.25;;;;;21.11;34.70;100111.53;5061887;28;64953;-75
2023/04/14 06:29:01;;;;;;;;;3.00;3.00;;;;;21.08;35.03;100111.75;5073734;27;46507;-72
2023/04/14 06:31:27;;;;;;;;;3.00;2.50;;;;;21.09;34.82;100104.63;5078510;27;45414;-72
2023/04/14 06:33:52;;;;;;;;;4.50;3.75;;;;;21.10;34.94;100103.66;5088288;27;60160;-67
2023/04/14 06:36:17;;;;;;;;;2.00;2.00;;;;;21.10;34.80;100098.34;5090646;27;45571;-68
2023/04/14 06:39:27;;;;;;;;;1.50;1.00;;;;;21.13;34.73;100098.09;5111074;27;45850;-67
2023/04/14 06:41:52;;;;;;;;;3.25;2.00;;;;;21.15;35.07;100097.00;5095315;27;65436;-67
2023/04/14 06:44:18;;;;;;;;;3.25;2.00;;;;;21.15;35.37;100091.66;5091612;27;61341;-68
2023/04/14 06:46:43;;;;;;;;;1.00;1.00;;;;;21.19;34.89;100084.28;5093307;27;64506;-67
2023/04/14 06:49:09;;;;;;;;;3.50;1.75;;;;;21.21;34.92;100082.31;5074737;27;71128;-65
2023/04/14 06:51:34;;;;;;;;;2.00;1.75;;;;;21.23;35.07;100081.25;5093580;27;45537;-66
2023/04/14 06:54:00;;;;;;;;;1.25;1.25;;;;;21.27;35.33;100078.34;5093561;27;45692;-66
2023/04/14 06:56:25;;;;;;;;;2.00;1.50;;;;;21.30;35.46;100072.75;5080054;27;63313;-66
2023/04/14 06:58:51;;;;;;;;;5.00;2.00;;;;;21.33;35.18;100069.84;5098139;27;64961;-67
2023/04/14 07:01:16;;;;;;;;;3.00;1.75;;;;;21.35;35.68;100062.56;5093729;27;73163;-67
2023/04/14 07:03:42;;;;;;;;;3.00;2.00;;;;;21.41;35.55;100065.56;5093953;27;50186;-66
2023/04/14 07:06:10;;;;;;;;;4.25;1.75;;;;;21.42;35.74;100061.94;5094078;27;45634;-66
2023/04/14 07:08:36;;;;;;;;;1.00;1.00;;;;;21.45;35.54;100062.66;5088551;27;46331;-65
2023/04/14 07:11:07;;;;;;;;;3.25;2.50;;;;;21.50;35.48;100068.47;5097977;27;45432;-69
2023/04/14 07:13:33;;;;;;;;;1.75;1.00;;;;;21.52;35.64;100072.69;5073730;27;45522;-74
2023/04/14 07:15:59;;;;;;;;;5.00;2.00;;;;;21.56;35.52;100070.63;5098202;27;45750;-73
2023/04/14 07:18:25;;;;;;;;;3.00;2.50;;;;;21.59;35.91;100068.53;5088002;27;46149;-72
2023/04/14 07:20:51;;;;;;;;;3.00;2.00;;;;;21.59;35.70;100065.03;5094151;27;61692;-73
2023/04/14 07:23:17;;;;;;;;;2.75;1.75;;;;;21.65;35.54;100063.66;5091521;27;45342;-72
2023/04/14 07:25:42;;;;;;;;;2.75;1.00;;;;;21.64;35.94;100054.84;5091783;27;45466;-76
2023/04/14 07:28:07;;;;;;;;;2.75;2.50;;;;;21.67;35.71;100051.06;5074124;27;71763;-73
2023/04/14 07:30:33;;;;;;;;;2.25;2.00;;;;;21.72;36.00;100054.19;5097114;27;69868;-74
2023/04/14 07:33:00;;;;;;;;;3.00;1.00;;;;;21.73;36.26;100053.22;5098312;27;68098;-74
2023/04/14 07:35:25;;;;;;;;;2.50;1.75;;;;;21.75;36.04;100038.78;5078267;27;45746;-73
2023/04/14 07:37:51;;;;;;;;;2.50;1.00;;;;;21.77;36.04;100047.50;5075082;27;46858;-74
2023/04/14 07:40:17;;;;;;;;;2.50;2.25;;;;;21.83;35.97;100045.28;5099879;27;45381;-74
2023/04/14 07:42:42;;;;;;;;;4.00;1.00;;;;;21.82;35.75;100036.47;5094235;27;45648;-73
2023/04/14 07:45:08;;;;;;;;;1.50;1.50;;;;;21.86;36.27;100029.03;5090812;27;45604;-74
2023/04/14 07:47:34;;;;;;;;;3.00;2.00;;;;;21.83;35.80;100026.63;5094013;27;47098;-74
2023/04/14 07:49:59;;;;;;;;;2.00;2.00;;;;;21.88;36.23;100021.75;5082058;27;45432;-75
2023/04/14 07:52:25;;;;;;;;;1.00;1.00;;;;;21.93;36.14;100024.88;5082263;27;45469;-74
2023/04/14 07:54:50;;;;;;;;;1.00;1.00;;;;;21.94;35.93;100023.91;5058587;28;60507;-74
2023/04/14 07:57:15;;;;;;;;;1.00;1.00;;;;;21.96;36.03;100025.44;5075926;27;47086;-74
2023/04/14 07:59:41;;;;;;;;;2.75;1.50;;;;;21.97;35.88;100021.81;5082492;27;59597;-74
2023/04/14 08:02:07;;;;;;;;;1.00;1.00;;;;;22.00;36.03;100020.72;5067575;27;45447;-74
2023/04/14 08:04:33;;;;;;;;;1.50;1.25;;;;;21.99;35.87;100011.88;5056772;28;45539;-75
2023/04/14 08:06:58;;;;;;;;;0.25;0.25;;;;;22.03;35.72;100003.59;5061650;28;48175;-81
2023/04/14 08:09:24;;;;;;;;;3.00;1.25;;;;;22.02;36.16;99996.59;5079840;28;45424;-78
2023/04/14 08:11:49;;;;;;;;;1.00;0.25;;;;;22.05;36.14;100004.34;5080027;28;45344;-74
2023/04/14 08:14:14;;;;;;;;;2.00;1.00;;;;;22.05;36.20;100001.66;5081762;27;45489;-72
2023/04/14 08:16:40;;;;;;;;;2.00;1.00;;;;;22.10;35.91;100008.28;5080261;27;73525;-76
2023/04/14 08:19:05;;;;;;;;;2.25;2.00;;;;;22.13;35.86;100012.47;5080638;27;45481;-77
2023/04/14 08:21:31;;;;;;;;;1.75;0.75;;;;;22.15;36.35;100015.84;5081194;27;45353;-75
2023/04/14 08:23:57;;;;;;;;;1.25;1.25;;;;;22.16;35.69;100017.56;5078544;27;45502;-78
2023/04/14 08:26:22;;;;;;;;;4.25;2.00;;;;;22.16;35.70;100010.38;5064220;28;46930;-77
2023/04/14 08:28:47;;;;;;;;;1.00;1.00;;;;;22.19;36.12;100007.47;5083254;27;45387;-77
2023/04/14 08:31:13;;;;;;;;;1.00;1.00;;;;;22.17;36.02;100004.09;5080814;27;65308;-76
2023/04/14 08:33:38;;;;;;;;;2.50;0.75;;;;;22.21;36.01;100010.00;5085569;27;64384;-76
2023/04/14 08:36:04;;;;;;;;;0.75;0.75;;;;;22.23;36.33;99999.22;5081720;28;63622;-73
2023/04/14 08:38:29;;;;;;;;;2.00;1.75;;;;;22.21;36.40;99995.84;5080690;27;45509;-70
2023/04/14 08:40:55;;;;;;;;;3.00;1.00;;;;;22.25;36.06;99994.59;5080453;27;45509;-71
2023/04/14 08:43:22;;;;;;;;;1.25;1.25;;;;;22.25;36.56;99991.91;5080133;27;45491;-76
2023/04/14 08:45:50;;;;;;;;;2.00;1.00;;;;;22.26;36.05;99983.78;5077135;27;46372;-74
2023/04/14 08:48:18;;;;;;;;;0.25;0.25;;;;;22.26;36.25;99977.63;5106071;27;45304;-70
2023/04/14 08:50:51;;;;;;;;;0.25;0.25;;;;;22.28;36.36;99975.69;5080155;27;45543;-72
2023/04/14 08:53:19;;;;;;;;;2.25;0.75;;;;;22.29;36.54;99977.38;5059237;28;45451;-77
2023/04/14 08:55:45;;;;;;;;;1.50;1.25;;;;;22.28;36.55;99973.88;5065022;28;47471;-70
2023/04/14 08:58:11;;;;;;;;;2.25;0.25;;;;;22.29;36.90;99982.69;5075663;27;73002;-72
2023/04/14 09:00:38;;;;;;;;;0.25;0.25;;;;;22.31;36.87;99975.41;5076661;27;45926;-71
2023/04/14 09:03:04;;;;;;;;;1.25;1.00;;;;;22.32;36.67;99971.78;5097041;27;45525;-72
2023/04/14 09:05:29;;;;;;;;;1.00;1.00;;;;;22.34;36.76;99973.31;5081224;27;45441;-72
2023/04/14 09:07:55;;;;;;;;;0.50;0.25;;;;;22.35;36.74;99969.69;5076918;27;70692;-71
2023/04/14 09:10:21;;;;;;;;;1.50;0.25;;;;;22.35;36.65;99961.69;5079521;27;45491;-71
2023/04/14 09:12:47;;;;;;;;;1.25;0.25;;;;;22.40;36.70;99957.75;5078671;27;45410;-70
2023/04/14 09:15:13;;;;;;;;;3.75;0.25;;;;;22.42;37.03;99958.47;5077518;28;45465;-71
2023/04/14 09:17:38;;;;;;;;;1.50;0.75;;;;;22.43;36.57;99952.97;5059017;28;45242;-71
2023/04/14 09:20:04;;;;;;;;;1.00;1.00;;;;;22.43;36.68;99950.31;5081115;27;57091;-71
2023/04/14 09:22:30;;;;;;;;;1.75;0.00;;;;;22.48;36.84;99952.59;5079615;27;45401;-73
2023/04/14 09:24:57;;;;;;;;;2.00;1.00;;;;;22.47;36.77;99943.75;5076332;28;46241;-71
2023/04/14 09:27:22;;;;;;;;;5.00;0.00;;;;;22.51;36.60;99945.16;5077394;28;45859;-71
2023/04/14 09:29:48;;;;;;;;;0.00;0.00;;;;;22.53;36.80;99942.34;5077268;27;65103;-71
2023/04/14 09:32:14;;;;;;;;;0.25;0.25;;;;;22.52;36.58;99944.19;5075674;27;60875;-71
2023/04/14 09:34:51;;;;;;;;;0.00;0.00;;;;;22.54;36.70;99928.88;5081372;27;45825;-71
2023/04/14 09:37:17;;;;;;;;;0.25;0.25;;;;;22.54;37.13;99928.88;5080655;28;45411;-70
2023/04/14 09:39:50;;;;;;;;;0.25;0.25;;;;;22.55;36.69;99935.88;5079165;27;45523;-71
2023/04/14 09:42:16;;;;;;;;;0.25;0.25;;;;;22.56;36.88;99937.59;5078297;28;45348;-71
2023/04/14 09:44:57;;;;;;;;;0.00;0.00;;;;;22.58;37.13;99923.28;5074676;28;47870;-70
2023/04/14 09:47:23;;;;;;;;;0.00;0.00;;;;;22.56;37.10;99921.59;5077732;27;45581;-72
2023/04/14 09:50:02;;;;;;;;;1.00;1.00;;;;;22.62;37.16;99922.84;5076134;27;45412;-72
2023/04/14 09:52:44;;;;;;;;;0.50;0.00;;;;;22.63;36.77;99921.88;5076876;27;45537;-70
2023/04/14 09:55:15;;;;;;;;;0.50;0.50;;;;;22.62;36.81;99914.84;5073089;27;45442;-71
2023/04/14 09:57:42;;;;;;;;;0.75;0.00;;;;;22.63;37.16;99910.34;5078563;27;45381;-69
2023/04/14 10:00:19;;;;;;;;;1.00;1.00;;;;;22.63;36.70;99915.69;5078173;27;45366;-71
2023/04/14 10:02:48;;;;;;;;;1.50;0.25;;;;;22.66;36.98;99915.41;5077709;27;45343;-77
2023/04/14 10:05:14;;;;;;;;;0.25;0.25;;;;;22.65;37.26;99898.56;5080670;27;45492;-72
2023/04/14 10:07:40;;;;;;;;;1.50;0.00;;;;;22.68;37.32;99910.78;5076327;27;45327;-72
2023/04/14 10:10:06;;;;;;;;;0.50;0.25;;;;;22.70;36.97;99911.47;5080538;27;45539;-72
2023/04/14 10:12:31;;;;;;;;;1.00;1.00;;;;;22.69;37.04;99904.47;5075918;27;45536;-73
2023/04/14 10:14:58;;;;;;;;;0.25;0.00;;;;;22.68;37.18;99897.44;5057045;28;58550;-69
2023/04/14 10:17:24;;;;;;;;;0.75;0.75;;;;;22.73;37.50;99900.53;5077034;27;45380;-76
2023/04/14 10:19:50;;;;;;;;;1.00;0.75;;;;;22.73;37.27;99901.38;5080928;27;45748;-75
2023/04/14 10:22:15;;;;;;;;;1.25;0.00;;;;;22.75;37.08;99899.41;5075244;27;46956;-78
2023/04/14 10:24:42;;;;;;;;;1.75;0.00;;;;;22.75;36.82;99894.09;5055079;28;60283;-71
2023/04/14 10:27:07;;;;;;;;;0.00;0.00;;;;;22.69;36.88;99889.28;5075602;27;45312;-74
2023/04/14 10:29:33;;;;;;;;;1.50;1.00;;;;;22.76;36.75;99886.91;5077162;27;46191;-72
2023/04/14 10:32:05;;;;;;;;;0.00;0.00;;;;;22.77;37.33;99887.75;5078899;27;45245;-71
2023/04/14 10:34:32;;;;;;;;;7.00;7.00;;;;;22.77;37.45;99885.09;5073508;27;45447;-78
2023/04/14 10:37:14;;;;;;;;;36.75;31.75;;;;;22.77;37.28;99879.75;5063896;27;46079;-74
2023/04/14 10:39:39;;;;;;;;;86.75;76.25;;;;;22.78;36.95;99876.09;5079304;27;45481;-70
2023/04/14 10:42:05;;;;;;;;;115.50;107.25;;;;;22.79;37.10;99883.09;5085670;27;45252;-73
2023/04/14 10:44:33;;;;;;;;;124.75;112.25;;;;;22.77;36.99;99872.59;5077136;28;46208;-72
2023/04/14 10:47:03;;;;;;;;;140.50;127.00;;;;;22.78;37.46;99870.78;5088071;27;45924;-71
2023/04/14 10:49:29;;;;;;;;;147.75;132.75;;;;;22.80;37.17;99863.47;5055556;28;45376;-71
2023/04/14 10:52:18;;;;;;;;;164.50;144.00;;;;;22.79;37.66;99859.09;5075806;28;45480;-70
2023/04/14 10:54:56;;;;;;;;;154.00;136.50;;;;;22.79;37.21;99859.97;5038691;27;45853;-70
2023/04/14 10:57:25;;;;;;;;;146.50;133.75;;;;;22.79;37.33;99862.63;5075984;28;45505;-73
2023/04/14 10:59:56;;;;;;;;;136.75;120.25;;;;;22.78;37.45;99858.28;5078914;27;47403;-69
2023/04/14 11:02:25;;;;;;;;;146.75;133.25;;;;;22.78;37.87;99854.78;5062057;28;45557;-81
2023/04/14 11:05:02;;;;;;;;;142.50;131.00;;;;;22.79;37.80;99849.28;5076781;27;45517;-73
2023/04/14 11:07:29;;;;;;;;;145.00;124.75;;;;;22.79;37.70;99840.44;5089892;27;45244;-70
2023/04/14 11:10:20;;;;;;;;;130.00;116.25;;;;;22.78;37.58;99841.44;5083997;27;45354;-71
2023/04/14 11:12:47;;;;;;;;;133.25;116.25;;;;;22.77;38.42;99835.25;5078570;27;45433;-73
2023/04/14 11:15:13;;;;;;;;;118.00;101.50;;;;;22.75;38.02;99832.72;5074075;28;45621;-70
2023/04/14 11:17:40;;;;;;;;;109.75;98.00;;;;;22.75;38.22;99831.88;5070182;27;45412;-67
2023/04/14 11:20:22;;;;;;;;;108.50;99.75;;;;;22.77;38.29;99821.06;5085082;27;45401;-66
2023/04/14 11:22:49;;;;;;;;;109.00;91.50;;;;;22.77;38.44;99813.06;5077719;27;45497;-66
2023/04/14 11:25:17;;;;;;;;;103.50;91.00;;;;;22.75;38.50;99810.53;5066298;27;46898;-66